sensor_id;sensor_type;location;lat;lon;timestamp;P1;durP1;ratioP1;P2;durP2;ratioP2
37047;SDS011;23227;48.780;9.210;2022-10-12T00:01:24;22.58;;;11.10;;
37047;SDS011;23227;48.780;9.210;2022-10-12T00:04:28;20.88;;;11.68;;
37047;SDS011;23227;48.780;9.210;2022-10-12T00:07:31;19.50;;;11.33;;
37047;SDS011;23227;48.780;9.210;2022-10-12T00:10:38;23.73;;;11.15;;
37047;SDS011;23227;48.780;9.210;2022-10-12T00:13:41;25.07;;;12.17;;
37047;SDS011;23227;48.780;9.210;2022-10-12T00:16:44;25.15;;;11.70;;
37047;SDS011;23227;48.780;9.210;2022-10-12T00:19:49;24.20;;;10.88;;
37047;SDS011;23227;48.780;9.210;2022-10-12T00:22:53;28.07;;;12.10;;
37047;SDS011;23227;48.780;9.210;2022-10-12T00:25:55;29.52;;;11.55;;
37047;SDS011;23227;48.780;9.210;2022-10-12T00:29:02;32.23;;;12.83;;
37047;SDS011;23227;48.780;9.210;2022-10-12T00:32:05;23.25;;;12.18;;
37047;SDS011;23227;48.780;9.210;2022-10-12T00:35:09;22.53;;;12.20;;
37047;SDS011;23227;48.780;9.210;2022-10-12T00:38:12;25.27;;;12.57;;
37047;SDS011;23227;48.780;9.210;2022-10-12T00:41:15;26.55;;;12.75;;
37047;SDS011;23227;48.780;9.210;2022-10-12T00:44:32;27.23;;;12.67;;
37047;SDS011;23227;48.780;9.210;2022-10-12T00:47:40;24.17;;;12.27;;
37047;SDS011;23227;48.780;9.210;2022-10-12T00:50:47;32.40;;;13.07;;
37047;SDS011;23227;48.780;9.210;2022-10-12T00:53:51;26.20;;;13.60;;
37047;SDS011;23227;48.780;9.210;2022-10-12T00:56:56;23.27;;;12.60;;
37047;SDS011;23227;48.780;9.210;2022-10-12T01:00:02;26.65;;;12.57;;
37047;SDS011;23227;48.780;9.210;2022-10-12T01:03:07;21.57;;;11.70;;
37047;SDS011;23227;48.780;9.210;2022-10-12T01:06:12;25.17;;;12.33;;
37047;SDS011;23227;48.780;9.210;2022-10-12T01:09:15;22.90;;;12.17;;
37047;SDS011;23227;48.780;9.210;2022-10-12T01:12:18;31.70;;;12.85;;
37047;SDS011;23227;48.780;9.210;2022-10-12T01:15:21;29.38;;;11.30;;
37047;SDS011;23227;48.780;9.210;2022-10-12T01:18:26;32.47;;;11.87;;
37047;SDS011;23227;48.780;9.210;2022-10-12T01:21:33;21.37;;;11.97;;
37047;SDS011;23227;48.780;9.210;2022-10-12T01:24:43;25.40;;;10.93;;
37047;SDS011;23227;48.780;9.210;2022-10-12T01:27:52;20.20;;;11.77;;
37047;SDS011;23227;48.780;9.210;2022-10-12T01:30:58;20.30;;;11.23;;
37047;SDS011;23227;48.780;9.210;2022-10-12T01:34:04;25.07;;;11.50;;
37047;SDS011;23227;48.780;9.210;2022-10-12T01:37:12;23.47;;;11.67;;
37047;SDS011;23227;48.780;9.210;2022-10-12T01:40:19;30.07;;;12.17;;
37047;SDS011;23227;48.780;9.210;2022-10-12T01:43:31;26.37;;;11.47;;
37047;SDS011;23227;48.780;9.210;2022-10-12T01:46:40;25.60;;;11.70;;
37047;SDS011;23227;48.780;9.210;2022-10-12T01:49:44;25.93;;;11.97;;
37047;SDS011;23227;48.780;9.210;2022-10-12T01:52:50;28.23;;;12.23;;
37047;SDS011;23227;48.780;9.210;2022-10-12T01:55:59;22.63;;;10.83;;
37047;SDS011;23227;48.780;9.210;2022-10-12T01:59:08;20.80;;;10.03;;
37047;SDS011;23227;48.780;9.210;2022-10-12T02:02:18;24.23;;;11.20;;
37047;SDS011;23227;48.780;9.210;2022-10-12T02:05:30;24.50;;;10.53;;
37047;SDS011;23227;48.780;9.210;2022-10-12T02:08:39;20.37;;;11.13;;
37047;SDS011;23227;48.780;9.210;2022-10-12T02:11:43;42.10;;;11.50;;
37047;SDS011;23227;48.780;9.210;2022-10-12T02:14:48;27.50;;;12.77;;
37047;SDS011;23227;48.780;9.210;2022-10-12T02:17:55;23.33;;;11.77;;
37047;SDS011;23227;48.780;9.210;2022-10-12T02:20:59;22.90;;;12.27;;
37047;SDS011;23227;48.780;9.210;2022-10-12T02:24:03;22.73;;;11.85;;
37047;SDS011;23227;48.780;9.210;2022-10-12T02:27:07;25.70;;;12.30;;
37047;SDS011;23227;48.780;9.210;2022-10-12T02:30:10;23.55;;;11.93;;
37047;SDS011;23227;48.780;9.210;2022-10-12T02:36:20;21.90;;;11.40;;
37047;SDS011;23227;48.780;9.210;2022-10-12T02:39:28;27.37;;;11.90;;
37047;SDS011;23227;48.780;9.210;2022-10-12T02:42:33;28.97;;;13.60;;
37047;SDS011;23227;48.780;9.210;2022-10-12T02:45:58;23.63;;;11.87;;
37047;SDS011;23227;48.780;9.210;2022-10-12T02:49:02;26.63;;;12.43;;
37047;SDS011;23227;48.780;9.210;2022-10-12T02:52:06;22.67;;;12.73;;
37047;SDS011;23227;48.780;9.210;2022-10-12T02:55:09;26.52;;;11.70;;
37047;SDS011;23227;48.780;9.210;2022-10-12T02:58:12;25.45;;;11.95;;
37047;SDS011;23227;48.780;9.210;2022-10-12T03:01:14;25.73;;;12.57;;
37047;SDS011;23227;48.780;9.210;2022-10-12T03:04:19;19.13;;;10.85;;
37047;SDS011;23227;48.780;9.210;2022-10-12T03:07:22;30.23;;;13.20;;
37047;SDS011;23227;48.780;9.210;2022-10-12T03:10:24;22.20;;;10.90;;
37047;SDS011;23227;48.780;9.210;2022-10-12T03:13:27;20.23;;;10.57;;
37047;SDS011;23227;48.780;9.210;2022-10-12T03:16:30;22.40;;;12.00;;
37047;SDS011;23227;48.780;9.210;2022-10-12T03:19:34;20.83;;;12.27;;
37047;SDS011;23227;48.780;9.210;2022-10-12T03:22:38;25.37;;;12.13;;
37047;SDS011;23227;48.780;9.210;2022-10-12T03:25:41;36.67;;;13.68;;
37047;SDS011;23227;48.780;9.210;2022-10-12T03:28:44;33.03;;;13.73;;
37047;SDS011;23227;48.780;9.210;2022-10-12T03:31:46;22.10;;;9.98;;
37047;SDS011;23227;48.780;9.210;2022-10-12T03:34:50;24.42;;;11.40;;
37047;SDS011;23227;48.780;9.210;2022-10-12T03:37:53;22.60;;;12.03;;
37047;SDS011;23227;48.780;9.210;2022-10-12T03:40:56;26.58;;;11.35;;
37047;SDS011;23227;48.780;9.210;2022-10-12T03:44:06;22.40;;;10.87;;
37047;SDS011;23227;48.780;9.210;2022-10-12T03:47:08;23.60;;;11.30;;
37047;SDS011;23227;48.780;9.210;2022-10-12T03:50:12;22.60;;;10.57;;
37047;SDS011;23227;48.780;9.210;2022-10-12T03:53:19;22.77;;;10.97;;
37047;SDS011;23227;48.780;9.210;2022-10-12T03:56:22;25.30;;;12.00;;
37047;SDS011;23227;48.780;9.210;2022-10-12T03:59:24;22.85;;;11.75;;
37047;SDS011;23227;48.780;9.210;2022-10-12T04:02:27;24.65;;;12.57;;
37047;SDS011;23227;48.780;9.210;2022-10-12T04:05:31;24.67;;;11.37;;
37047;SDS011;23227;48.780;9.210;2022-10-12T04:08:34;26.10;;;12.53;;
37047;SDS011;23227;48.780;9.210;2022-10-12T04:11:36;28.97;;;12.63;;
37047;SDS011;23227;48.780;9.210;2022-10-12T04:14:39;24.87;;;13.27;;
37047;SDS011;23227;48.780;9.210;2022-10-12T04:17:42;32.33;;;14.35;;
37047;SDS011;23227;48.780;9.210;2022-10-12T04:20:47;26.35;;;13.32;;
37047;SDS011;23227;48.780;9.210;2022-10-12T04:23:50;29.93;;;11.90;;
37047;SDS011;23227;48.780;9.210;2022-10-12T04:26:53;29.67;;;13.35;;
37047;SDS011;23227;48.780;9.210;2022-10-12T04:29:55;25.58;;;12.32;;
37047;SDS011;23227;48.780;9.210;2022-10-12T04:32:58;24.23;;;12.40;;
37047;SDS011;23227;48.780;9.210;2022-10-12T04:36:02;23.50;;;12.10;;
37047;SDS011;23227;48.780;9.210;2022-10-12T04:39:05;21.50;;;11.27;;
37047;SDS011;23227;48.780;9.210;2022-10-12T04:42:09;26.67;;;11.77;;
37047;SDS011;23227;48.780;9.210;2022-10-12T04:45:12;23.15;;;12.27;;
37047;SDS011;23227;48.780;9.210;2022-10-12T04:48:15;22.97;;;12.00;;
37047;SDS011;23227;48.780;9.210;2022-10-12T04:51:19;23.97;;;11.93;;
37047;SDS011;23227;48.780;9.210;2022-10-12T04:54:22;28.70;;;12.10;;
37047;SDS011;23227;48.780;9.210;2022-10-12T04:57:25;25.57;;;11.40;;
37047;SDS011;23227;48.780;9.210;2022-10-12T05:00:27;24.48;;;12.20;;
37047;SDS011;23227;48.780;9.210;2022-10-12T05:03:30;24.00;;;11.48;;
37047;SDS011;23227;48.780;9.210;2022-10-12T05:06:39;22.33;;;11.20;;
37047;SDS011;23227;48.780;9.210;2022-10-12T05:09:42;19.83;;;10.80;;
37047;SDS011;23227;48.780;9.210;2022-10-12T05:12:45;25.05;;;11.20;;
37047;SDS011;23227;48.780;9.210;2022-10-12T05:15:47;27.52;;;12.82;;
37047;SDS011;23227;48.780;9.210;2022-10-12T05:18:50;28.42;;;11.43;;
37047;SDS011;23227;48.780;9.210;2022-10-12T05:21:54;29.83;;;13.30;;
37047;SDS011;23227;48.780;9.210;2022-10-12T05:24:57;38.47;;;17.33;;
37047;SDS011;23227;48.780;9.210;2022-10-12T05:28:00;22.73;;;12.77;;
37047;SDS011;23227;48.780;9.210;2022-10-12T05:31:03;24.27;;;12.27;;
37047;SDS011;23227;48.780;9.210;2022-10-12T05:34:05;27.08;;;13.00;;
37047;SDS011;23227;48.780;9.210;2022-10-12T05:37:09;24.48;;;13.30;;
37047;SDS011;23227;48.780;9.210;2022-10-12T05:40:12;28.00;;;12.63;;
37047;SDS011;23227;48.780;9.210;2022-10-12T05:43:15;26.95;;;12.57;;
37047;SDS011;23227;48.780;9.210;2022-10-12T05:46:20;25.37;;;12.70;;
37047;SDS011;23227;48.780;9.210;2022-10-12T05:49:23;27.65;;;13.50;;
37047;SDS011;23227;48.780;9.210;2022-10-12T05:52:27;29.20;;;12.98;;
37047;SDS011;23227;48.780;9.210;2022-10-12T05:55:30;27.73;;;12.17;;
37047;SDS011;23227;48.780;9.210;2022-10-12T05:58:33;31.88;;;13.68;;
37047;SDS011;23227;48.780;9.210;2022-10-12T06:01:35;31.80;;;12.88;;
37047;SDS011;23227;48.780;9.210;2022-10-12T06:04:38;31.13;;;12.85;;
37047;SDS011;23227;48.780;9.210;2022-10-12T06:07:42;28.33;;;12.93;;
37047;SDS011;23227;48.780;9.210;2022-10-12T06:10:45;28.87;;;12.53;;
37047;SDS011;23227;48.780;9.210;2022-10-12T06:13:51;32.47;;;13.77;;
37047;SDS011;23227;48.780;9.210;2022-10-12T06:16:55;26.70;;;12.70;;
37047;SDS011;23227;48.780;9.210;2022-10-12T06:19:57;30.88;;;13.40;;
37047;SDS011;23227;48.780;9.210;2022-10-12T06:23:01;26.65;;;12.82;;
37047;SDS011;23227;48.780;9.210;2022-10-12T06:26:04;25.03;;;13.23;;
37047;SDS011;23227;48.780;9.210;2022-10-12T06:29:07;28.85;;;12.95;;
37047;SDS011;23227;48.780;9.210;2022-10-12T06:32:10;33.20;;;15.20;;
37047;SDS011;23227;48.780;9.210;2022-10-12T06:35:13;33.70;;;12.45;;
37047;SDS011;23227;48.780;9.210;2022-10-12T06:38:17;26.60;;;12.10;;
37047;SDS011;23227;48.780;9.210;2022-10-12T06:41:20;25.47;;;12.03;;
37047;SDS011;23227;48.780;9.210;2022-10-12T06:44:22;29.98;;;13.55;;
37047;SDS011;23227;48.780;9.210;2022-10-12T06:47:25;31.65;;;12.90;;
37047;SDS011;23227;48.780;9.210;2022-10-12T06:50:28;30.35;;;13.38;;
37047;SDS011;23227;48.780;9.210;2022-10-12T06:53:32;28.20;;;13.75;;
37047;SDS011;23227;48.780;9.210;2022-10-12T06:56:35;27.27;;;12.97;;
37047;SDS011;23227;48.780;9.210;2022-10-12T06:59:39;26.13;;;13.80;;
37047;SDS011;23227;48.780;9.210;2022-10-12T07:02:42;33.17;;;12.48;;
37047;SDS011;23227;48.780;9.210;2022-10-12T07:05:45;27.33;;;12.85;;
37047;SDS011;23227;48.780;9.210;2022-10-12T07:08:52;30.17;;;12.05;;
37047;SDS011;23227;48.780;9.210;2022-10-12T07:11:55;31.10;;;12.73;;
37047;SDS011;23227;48.780;9.210;2022-10-12T07:14:58;23.13;;;12.55;;
37047;SDS011;23227;48.780;9.210;2022-10-12T07:18:00;28.85;;;13.73;;
37047;SDS011;23227;48.780;9.210;2022-10-12T07:21:03;27.33;;;14.68;;
37047;SDS011;23227;48.780;9.210;2022-10-12T07:24:07;27.73;;;12.98;;
37047;SDS011;23227;48.780;9.210;2022-10-12T07:27:12;34.47;;;14.47;;
37047;SDS011;23227;48.780;9.210;2022-10-12T07:30:15;33.90;;;14.73;;
37047;SDS011;23227;48.780;9.210;2022-10-12T07:33:18;35.72;;;13.38;;
37047;SDS011;23227;48.780;9.210;2022-10-12T07:36:21;23.77;;;12.60;;
37047;SDS011;23227;48.780;9.210;2022-10-12T07:39:28;30.87;;;13.10;;
37047;SDS011;23227;48.780;9.210;2022-10-12T07:42:31;32.37;;;14.03;;
37047;SDS011;23227;48.780;9.210;2022-10-12T07:45:34;26.15;;;13.85;;
37047;SDS011;23227;48.780;9.210;2022-10-12T07:48:39;32.00;;;13.23;;
37047;SDS011;23227;48.780;9.210;2022-10-12T07:51:50;29.47;;;13.43;;
37047;SDS011;23227;48.780;9.210;2022-10-12T07:54:54;36.53;;;13.68;;
37047;SDS011;23227;48.780;9.210;2022-10-12T07:57:57;28.83;;;13.67;;
37047;SDS011;23227;48.780;9.210;2022-10-12T08:01:03;26.50;;;12.43;;
37047;SDS011;23227;48.780;9.210;2022-10-12T08:04:06;23.27;;;12.57;;
37047;SDS011;23227;48.780;9.210;2022-10-12T08:07:09;27.25;;;12.48;;
37047;SDS011;23227;48.780;9.210;2022-10-12T08:10:13;30.73;;;12.82;;
37047;SDS011;23227;48.780;9.210;2022-10-12T08:13:16;28.07;;;12.67;;
37047;SDS011;23227;48.780;9.210;2022-10-12T08:16:20;25.60;;;12.07;;
37047;SDS011;23227;48.780;9.210;2022-10-12T08:19:23;24.97;;;13.23;;
37047;SDS011;23227;48.780;9.210;2022-10-12T08:22:25;23.33;;;11.63;;
37047;SDS011;23227;48.780;9.210;2022-10-12T08:25:30;26.73;;;12.15;;
37047;SDS011;23227;48.780;9.210;2022-10-12T08:28:34;27.13;;;11.67;;
37047;SDS011;23227;48.780;9.210;2022-10-12T08:31:37;22.60;;;12.63;;
37047;SDS011;23227;48.780;9.210;2022-10-12T08:34:40;30.60;;;12.00;;
37047;SDS011;23227;48.780;9.210;2022-10-12T08:37:43;18.23;;;11.45;;
37047;SDS011;23227;48.780;9.210;2022-10-12T08:40:48;31.33;;;12.77;;
37047;SDS011;23227;48.780;9.210;2022-10-12T08:44:00;25.10;;;13.33;;
37047;SDS011;23227;48.780;9.210;2022-10-12T08:47:11;22.90;;;12.23;;
37047;SDS011;23227;48.780;9.210;2022-10-12T08:50:17;30.90;;;12.67;;
37047;SDS011;23227;48.780;9.210;2022-10-12T08:53:24;19.97;;;11.83;;
37047;SDS011;23227;48.780;9.210;2022-10-12T08:56:30;21.13;;;12.60;;
37047;SDS011;23227;48.780;9.210;2022-10-12T08:59:35;23.03;;;12.30;;
37047;SDS011;23227;48.780;9.210;2022-10-12T09:02:44;23.65;;;13.23;;
37047;SDS011;23227;48.780;9.210;2022-10-12T09:05:53;22.60;;;12.47;;
37047;SDS011;23227;48.780;9.210;2022-10-12T09:09:02;22.10;;;10.83;;
37047;SDS011;23227;48.780;9.210;2022-10-12T09:12:15;20.67;;;10.70;;
37047;SDS011;23227;48.780;9.210;2022-10-12T09:15:27;25.60;;;10.40;;
37047;SDS011;23227;48.780;9.210;2022-10-12T09:18:32;20.50;;;10.30;;
37047;SDS011;23227;48.780;9.210;2022-10-12T09:21:41;21.73;;;9.87;;
37047;SDS011;23227;48.780;9.210;2022-10-12T09:24:46;19.27;;;8.67;;
37047;SDS011;23227;48.780;9.210;2022-10-12T09:27:52;22.07;;;9.60;;
37047;SDS011;23227;48.780;9.210;2022-10-12T09:30:59;21.73;;;10.03;;
37047;SDS011;23227;48.780;9.210;2022-10-12T09:34:06;21.90;;;10.30;;
37047;SDS011;23227;48.780;9.210;2022-10-12T09:37:11;17.27;;;9.27;;
37047;SDS011;23227;48.780;9.210;2022-10-12T09:40:19;17.63;;;9.20;;
37047;SDS011;23227;48.780;9.210;2022-10-12T09:43:24;19.83;;;8.13;;
37047;SDS011;23227;48.780;9.210;2022-10-12T09:46:28;18.73;;;8.73;;
37047;SDS011;23227;48.780;9.210;2022-10-12T09:49:39;16.17;;;8.63;;
37047;SDS011;23227;48.780;9.210;2022-10-12T09:52:43;17.73;;;9.83;;
37047;SDS011;23227;48.780;9.210;2022-10-12T09:59:16;19.57;;;8.97;;
37047;SDS011;23227;48.780;9.210;2022-10-12T10:02:25;16.70;;;9.13;;
37047;SDS011;23227;48.780;9.210;2022-10-12T10:05:29;21.77;;;9.93;;
37047;SDS011;23227;48.780;9.210;2022-10-12T10:08:38;21.40;;;8.73;;
37047;SDS011;23227;48.780;9.210;2022-10-12T10:11:42;15.03;;;8.00;;
37047;SDS011;23227;48.780;9.210;2022-10-12T10:14:46;16.38;;;8.13;;
37047;SDS011;23227;48.780;9.210;2022-10-12T10:17:50;17.57;;;7.80;;
37047;SDS011;23227;48.780;9.210;2022-10-12T10:20:54;17.63;;;7.73;;
37047;SDS011;23227;48.780;9.210;2022-10-12T10:23:59;12.87;;;8.10;;
37047;SDS011;23227;48.780;9.210;2022-10-12T10:27:03;13.73;;;7.63;;
37047;SDS011;23227;48.780;9.210;2022-10-12T10:30:19;15.93;;;7.10;;
37047;SDS011;23227;48.780;9.210;2022-10-12T10:33:33;18.17;;;7.67;;
37047;SDS011;23227;48.780;9.210;2022-10-12T10:36:36;15.67;;;7.47;;
37047;SDS011;23227;48.780;9.210;2022-10-12T10:39:43;15.40;;;7.37;;
37047;SDS011;23227;48.780;9.210;2022-10-12T10:42:49;17.13;;;7.17;;
37047;SDS011;23227;48.780;9.210;2022-10-12T10:45:55;21.40;;;7.90;;
37047;SDS011;23227;48.780;9.210;2022-10-12T10:48:59;15.70;;;7.27;;
37047;SDS011;23227;48.780;9.210;2022-10-12T10:52:07;11.67;;;6.60;;
37047;SDS011;23227;48.780;9.210;2022-10-12T10:55:21;16.13;;;7.27;;
37047;SDS011;23227;48.780;9.210;2022-10-12T10:58:26;20.73;;;7.30;;
37047;SDS011;23227;48.780;9.210;2022-10-12T11:01:36;15.07;;;7.27;;
37047;SDS011;23227;48.780;9.210;2022-10-12T11:04:42;16.47;;;7.20;;
37047;SDS011;23227;48.780;9.210;2022-10-12T11:07:49;13.63;;;6.33;;
37047;SDS011;23227;48.780;9.210;2022-10-12T11:10:54;16.50;;;6.60;;
37047;SDS011;23227;48.780;9.210;2022-10-12T11:13:58;15.73;;;6.63;;
37047;SDS011;23227;48.780;9.210;2022-10-12T11:17:08;15.57;;;6.73;;
37047;SDS011;23227;48.780;9.210;2022-10-12T11:20:20;15.53;;;6.03;;
37047;SDS011;23227;48.780;9.210;2022-10-12T11:23:30;12.33;;;6.60;;
37047;SDS011;23227;48.780;9.210;2022-10-12T11:26:37;14.60;;;6.10;;
37047;SDS011;23227;48.780;9.210;2022-10-12T11:29:42;11.60;;;6.10;;
37047;SDS011;23227;48.780;9.210;2022-10-12T11:32:58;12.30;;;6.43;;
37047;SDS011;23227;48.780;9.210;2022-10-12T11:36:03;13.87;;;7.30;;
37047;SDS011;23227;48.780;9.210;2022-10-12T11:39:12;12.60;;;6.70;;
37047;SDS011;23227;48.780;9.210;2022-10-12T11:42:24;12.47;;;6.20;;
37047;SDS011;23227;48.780;9.210;2022-10-12T11:45:33;13.20;;;5.97;;
37047;SDS011;23227;48.780;9.210;2022-10-12T11:48:40;13.73;;;5.97;;
37047;SDS011;23227;48.780;9.210;2022-10-12T11:51:47;12.27;;;6.03;;
37047;SDS011;23227;48.780;9.210;2022-10-12T11:54:51;14.47;;;6.10;;
37047;SDS011;23227;48.780;9.210;2022-10-12T11:58:04;15.53;;;6.77;;
37047;SDS011;23227;48.780;9.210;2022-10-12T12:01:25;14.50;;;6.63;;
37047;SDS011;23227;48.780;9.210;2022-10-12T12:04:35;13.33;;;6.17;;
37047;SDS011;23227;48.780;9.210;2022-10-12T12:07:44;14.27;;;5.40;;
37047;SDS011;23227;48.780;9.210;2022-10-12T12:10:52;13.20;;;6.00;;
37047;SDS011;23227;48.780;9.210;2022-10-12T12:17:38;15.90;;;6.20;;
37047;SDS011;23227;48.780;9.210;2022-10-12T12:21:13;12.45;;;5.65;;
37047;SDS011;23227;48.780;9.210;2022-10-12T12:24:16;12.70;;;6.10;;
37047;SDS011;23227;48.780;9.210;2022-10-12T12:27:21;14.30;;;5.50;;
37047;SDS011;23227;48.780;9.210;2022-10-12T12:30:33;9.83;;;4.87;;
37047;SDS011;23227;48.780;9.210;2022-10-12T12:33:37;17.90;;;6.10;;
37047;SDS011;23227;48.780;9.210;2022-10-12T12:36:44;17.90;;;6.27;;
37047;SDS011;23227;48.780;9.210;2022-10-12T12:39:51;10.07;;;5.20;;
37047;SDS011;23227;48.780;9.210;2022-10-12T12:46:20;11.07;;;4.90;;
37047;SDS011;23227;48.780;9.210;2022-10-12T12:49:25;8.97;;;5.00;;
37047;SDS011;23227;48.780;9.210;2022-10-12T12:52:31;10.47;;;4.57;;
37047;SDS011;23227;48.780;9.210;2022-10-12T12:55:39;9.40;;;4.73;;
37047;SDS011;23227;48.780;9.210;2022-10-12T12:58:54;9.98;;;4.93;;
37047;SDS011;23227;48.780;9.210;2022-10-12T13:02:09;14.93;;;3.80;;
37047;SDS011;23227;48.780;9.210;2022-10-12T13:05:38;8.30;;;3.80;;
37047;SDS011;23227;48.780;9.210;2022-10-12T13:09:02;9.77;;;4.53;;
37047;SDS011;23227;48.780;9.210;2022-10-12T13:12:41;10.50;;;3.75;;
37047;SDS011;23227;48.780;9.210;2022-10-12T13:15:58;12.57;;;3.85;;
37047;SDS011;23227;48.780;9.210;2022-10-12T13:19:08;9.23;;;3.58;;
37047;SDS011;23227;48.780;9.210;2022-10-12T13:22:13;8.45;;;3.80;;
37047;SDS011;23227;48.780;9.210;2022-10-12T13:25:22;8.00;;;3.83;;
37047;SDS011;23227;48.780;9.210;2022-10-12T13:28:30;9.05;;;3.10;;
37047;SDS011;23227;48.780;9.210;2022-10-12T13:31:35;6.88;;;2.90;;
37047;SDS011;23227;48.780;9.210;2022-10-12T13:34:41;10.18;;;3.70;;
37047;SDS011;23227;48.780;9.210;2022-10-12T13:37:57;9.57;;;3.28;;
37047;SDS011;23227;48.780;9.210;2022-10-12T13:41:04;7.88;;;3.10;;
37047;SDS011;23227;48.780;9.210;2022-10-12T13:44:16;11.15;;;3.67;;
37047;SDS011;23227;48.780;9.210;2022-10-12T13:47:21;6.82;;;3.60;;
37047;SDS011;23227;48.780;9.210;2022-10-12T13:50:26;7.65;;;3.65;;
37047;SDS011;23227;48.780;9.210;2022-10-12T13:53:33;5.75;;;3.70;;
37047;SDS011;23227;48.780;9.210;2022-10-12T13:56:38;8.75;;;3.65;;
37047;SDS011;23227;48.780;9.210;2022-10-12T13:59:41;9.67;;;3.70;;
37047;SDS011;23227;48.780;9.210;2022-10-12T14:05:55;10.30;;;4.67;;
37047;SDS011;23227;48.780;9.210;2022-10-12T14:09:05;8.80;;;3.47;;
37047;SDS011;23227;48.780;9.210;2022-10-12T14:12:11;8.20;;;3.40;;
37047;SDS011;23227;48.780;9.210;2022-10-12T14:15:15;8.38;;;3.95;;
37047;SDS011;23227;48.780;9.210;2022-10-12T14:18:32;5.93;;;3.00;;
37047;SDS011;23227;48.780;9.210;2022-10-12T14:21:36;9.33;;;4.27;;
37047;SDS011;23227;48.780;9.210;2022-10-12T14:24:38;8.35;;;4.15;;
37047;SDS011;23227;48.780;9.210;2022-10-12T14:27:43;6.95;;;3.95;;
37047;SDS011;23227;48.780;9.210;2022-10-12T14:30:49;8.60;;;3.50;;
37047;SDS011;23227;48.780;9.210;2022-10-12T14:33:53;14.18;;;4.32;;
37047;SDS011;23227;48.780;9.210;2022-10-12T14:36:59;9.38;;;4.05;;
37047;SDS011;23227;48.780;9.210;2022-10-12T14:43:40;9.63;;;3.80;;
37047;SDS011;23227;48.780;9.210;2022-10-12T14:46:45;10.43;;;3.72;;
37047;SDS011;23227;48.780;9.210;2022-10-12T14:49:52;11.20;;;3.88;;
37047;SDS011;23227;48.780;9.210;2022-10-12T14:52:56;8.55;;;4.20;;
37047;SDS011;23227;48.780;9.210;2022-10-12T14:56:00;12.98;;;3.85;;
37047;SDS011;23227;48.780;9.210;2022-10-12T15:02:09;10.57;;;4.00;;
37047;SDS011;23227;48.780;9.210;2022-10-12T15:05:16;11.88;;;3.92;;
37047;SDS011;23227;48.780;9.210;2022-10-12T15:08:21;16.55;;;4.10;;
37047;SDS011;23227;48.780;9.210;2022-10-12T15:14:28;10.77;;;4.50;;
37047;SDS011;23227;48.780;9.210;2022-10-12T15:17:30;8.98;;;4.38;;
37047;SDS011;23227;48.780;9.210;2022-10-12T15:20:33;10.30;;;4.07;;
37047;SDS011;23227;48.780;9.210;2022-10-12T15:23:36;10.98;;;4.35;;
37047;SDS011;23227;48.780;9.210;2022-10-12T15:26:39;6.32;;;3.85;;
37047;SDS011;23227;48.780;9.210;2022-10-12T15:29:44;10.68;;;4.40;;
37047;SDS011;23227;48.780;9.210;2022-10-12T15:32:48;11.13;;;4.93;;
37047;SDS011;23227;48.780;9.210;2022-10-12T15:35:50;8.38;;;4.07;;
37047;SDS011;23227;48.780;9.210;2022-10-12T15:38:53;11.30;;;4.95;;
37047;SDS011;23227;48.780;9.210;2022-10-12T15:41:56;8.70;;;4.85;;
37047;SDS011;23227;48.780;9.210;2022-10-12T15:45:00;8.73;;;4.07;;
37047;SDS011;23227;48.780;9.210;2022-10-12T15:48:03;13.95;;;4.15;;
37047;SDS011;23227;48.780;9.210;2022-10-12T15:51:08;10.77;;;3.92;;
37047;SDS011;23227;48.780;9.210;2022-10-12T15:54:14;16.05;;;4.85;;
37047;SDS011;23227;48.780;9.210;2022-10-12T15:57:18;13.53;;;4.60;;
37047;SDS011;23227;48.780;9.210;2022-10-12T16:00:23;14.88;;;4.80;;
37047;SDS011;23227;48.780;9.210;2022-10-12T16:03:27;12.57;;;4.00;;
37047;SDS011;23227;48.780;9.210;2022-10-12T16:06:32;10.00;;;4.10;;
37047;SDS011;23227;48.780;9.210;2022-10-12T16:09:35;14.63;;;4.30;;
37047;SDS011;23227;48.780;9.210;2022-10-12T16:12:38;14.27;;;4.27;;
37047;SDS011;23227;48.780;9.210;2022-10-12T16:18:47;12.30;;;4.10;;
37047;SDS011;23227;48.780;9.210;2022-10-12T16:21:50;8.27;;;4.25;;
37047;SDS011;23227;48.780;9.210;2022-10-12T16:24:52;9.38;;;5.10;;
37047;SDS011;23227;48.780;9.210;2022-10-12T16:27:55;14.38;;;5.10;;
37047;SDS011;23227;48.780;9.210;2022-10-12T16:31:00;11.10;;;5.07;;
37047;SDS011;23227;48.780;9.210;2022-10-12T16:34:03;15.43;;;5.03;;
37047;SDS011;23227;48.780;9.210;2022-10-12T16:37:06;11.35;;;4.93;;
37047;SDS011;23227;48.780;9.210;2022-10-12T16:40:09;16.42;;;6.60;;
37047;SDS011;23227;48.780;9.210;2022-10-12T16:43:13;14.17;;;5.20;;
37047;SDS011;23227;48.780;9.210;2022-10-12T16:46:17;11.00;;;5.00;;
37047;SDS011;23227;48.780;9.210;2022-10-12T16:49:19;14.80;;;5.43;;
37047;SDS011;23227;48.780;9.210;2022-10-12T16:52:22;10.00;;;5.28;;
37047;SDS011;23227;48.780;9.210;2022-10-12T16:58:28;11.90;;;5.07;;
37047;SDS011;23227;48.780;9.210;2022-10-12T17:01:32;10.95;;;5.28;;
37047;SDS011;23227;48.780;9.210;2022-10-12T17:04:34;16.57;;;6.00;;
37047;SDS011;23227;48.780;9.210;2022-10-12T17:07:37;15.68;;;6.03;;
37047;SDS011;23227;48.780;9.210;2022-10-12T17:10:40;15.07;;;7.53;;
37047;SDS011;23227;48.780;9.210;2022-10-12T17:13:43;18.42;;;7.22;;
37047;SDS011;23227;48.780;9.210;2022-10-12T17:16:51;17.50;;;6.50;;
37047;SDS011;23227;48.780;9.210;2022-10-12T17:19:57;13.43;;;6.50;;
37047;SDS011;23227;48.780;9.210;2022-10-12T17:23:01;17.83;;;7.55;;
37047;SDS011;23227;48.780;9.210;2022-10-12T17:26:04;11.43;;;7.13;;
37047;SDS011;23227;48.780;9.210;2022-10-12T17:29:08;15.15;;;6.72;;
37047;SDS011;23227;48.780;9.210;2022-10-12T17:32:18;23.00;;;8.53;;
37047;SDS011;23227;48.780;9.210;2022-10-12T17:35:20;27.27;;;9.00;;
37047;SDS011;23227;48.780;9.210;2022-10-12T17:38:23;17.15;;;8.45;;
37047;SDS011;23227;48.780;9.210;2022-10-12T17:41:26;21.73;;;7.72;;
37047;SDS011;23227;48.780;9.210;2022-10-12T17:44:30;13.97;;;8.50;;
37047;SDS011;23227;48.780;9.210;2022-10-12T17:47:34;17.27;;;8.27;;
37047;SDS011;23227;48.780;9.210;2022-10-12T17:50:36;30.83;;;9.10;;
37047;SDS011;23227;48.780;9.210;2022-10-12T17:53:39;17.42;;;9.20;;
37047;SDS011;23227;48.780;9.210;2022-10-12T17:56:42;15.90;;;8.13;;
37047;SDS011;23227;48.780;9.210;2022-10-12T17:59:44;25.60;;;10.00;;
37047;SDS011;23227;48.780;9.210;2022-10-12T18:02:48;23.38;;;9.02;;
37047;SDS011;23227;48.780;9.210;2022-10-12T18:05:51;21.93;;;10.43;;
37047;SDS011;23227;48.780;9.210;2022-10-12T18:08:54;22.55;;;9.32;;
37047;SDS011;23227;48.780;9.210;2022-10-12T18:11:57;19.70;;;9.07;;
37047;SDS011;23227;48.780;9.210;2022-10-12T18:15:00;18.25;;;8.85;;
37047;SDS011;23227;48.780;9.210;2022-10-12T18:18:04;23.90;;;8.57;;
37047;SDS011;23227;48.780;9.210;2022-10-12T18:21:12;21.20;;;9.57;;
37047;SDS011;23227;48.780;9.210;2022-10-12T18:24:15;19.88;;;9.50;;
37047;SDS011;23227;48.780;9.210;2022-10-12T18:27:18;20.88;;;8.90;;
37047;SDS011;23227;48.780;9.210;2022-10-12T18:30:21;22.92;;;10.13;;
37047;SDS011;23227;48.780;9.210;2022-10-12T18:33:25;18.00;;;8.90;;
37047;SDS011;23227;48.780;9.210;2022-10-12T18:36:28;19.20;;;9.17;;
37047;SDS011;23227;48.780;9.210;2022-10-12T18:39:31;25.52;;;11.55;;
37047;SDS011;23227;48.780;9.210;2022-10-12T18:42:33;27.90;;;11.93;;
37047;SDS011;23227;48.780;9.210;2022-10-12T18:45:39;28.23;;;11.60;;